createdAt,value
2023-05-03T00:02:07.388Z,1.20
2023-05-03T00:04:35.484Z,1.30
2023-05-03T00:07:03.960Z,1.10
2023-05-03T00:09:35.159Z,0.90
2023-05-03T00:12:03.384Z,0.90
2023-05-03T00:14:31.755Z,0.90
2023-05-03T00:16:59.987Z,1.23
2023-05-03T00:19:31.878Z,1.00
2023-05-03T00:22:00.238Z,1.27
2023-05-03T00:24:28.863Z,1.23
2023-05-03T00:26:58.408Z,1.02
2023-05-03T00:29:26.559Z,1.13
2023-05-03T00:31:54.663Z,1.13
2023-05-03T00:34:22.841Z,1.10
2023-05-03T00:36:51.518Z,0.90
2023-05-03T00:39:19.943Z,1.25
2023-05-03T00:41:48.023Z,1.48
2023-05-03T00:44:17.570Z,1.02
2023-05-03T00:46:45.902Z,1.27
2023-05-03T00:49:14.047Z,1.08
2023-05-03T00:51:43.390Z,1.30
2023-05-03T00:54:12.378Z,1.00
2023-05-03T00:56:51.021Z,1.40
2023-05-03T00:59:21.250Z,1.30
2023-05-03T01:01:51.019Z,1.40
2023-05-03T01:04:20.385Z,1.27
2023-05-03T01:06:55.715Z,1.40
2023-05-03T01:09:32.376Z,1.20
2023-05-03T01:12:13.014Z,0.90
2023-05-03T01:14:50.200Z,1.33
2023-05-03T01:17:21.556Z,1.00
2023-05-03T01:19:52.582Z,1.23
2023-05-03T01:22:28.376Z,1.08
2023-05-03T01:25:08.287Z,1.50
2023-05-03T01:27:37.065Z,1.33
2023-05-03T01:30:07.876Z,1.60
2023-05-03T01:32:47.738Z,1.70
2023-05-03T01:35:22.637Z,1.48
2023-05-03T01:37:52.225Z,1.55
2023-05-03T01:40:23.977Z,1.27
2023-05-03T01:42:53.586Z,1.17
2023-05-03T01:45:21.914Z,0.93
2023-05-03T01:47:50.177Z,1.10
2023-05-03T01:50:18.587Z,1.13
2023-05-03T01:52:46.751Z,1.10
2023-05-03T01:55:14.843Z,1.40
2023-05-03T01:57:44.321Z,1.10
2023-05-03T02:00:13.931Z,1.30
2023-05-03T02:02:42.039Z,1.25
2023-05-03T02:05:12.285Z,1.27
2023-05-03T02:07:40.930Z,1.50
2023-05-03T02:10:15.013Z,1.50
2023-05-03T02:12:45.576Z,1.35
2023-05-03T02:15:14.070Z,1.20
2023-05-03T02:17:44.049Z,1.50
2023-05-03T02:20:13.201Z,1.50
2023-05-03T02:22:42.525Z,1.35
2023-05-03T02:25:11.115Z,1.23
2023-05-03T02:27:39.221Z,1.20
2023-05-03T02:30:09.976Z,1.20
2023-05-03T02:32:38.462Z,1.05
2023-05-03T02:35:07.462Z,1.45
2023-05-03T02:37:35.905Z,1.00
2023-05-03T02:40:06.149Z,1.27
2023-05-03T02:42:34.363Z,1.10
2023-05-03T02:45:03.426Z,1.38
2023-05-03T02:47:32.961Z,1.42
2023-05-03T02:50:01.490Z,1.30
2023-05-03T02:52:30.467Z,1.58
2023-05-03T02:54:58.679Z,1.50
2023-05-03T02:57:26.836Z,1.30
2023-05-03T02:59:55.259Z,1.50
2023-05-03T03:02:23.581Z,1.48
2023-05-03T03:04:53.703Z,1.55
2023-05-03T03:07:21.781Z,1.42
2023-05-03T03:09:50.153Z,1.80
2023-05-03T03:12:18.346Z,1.80
2023-05-03T03:14:47.036Z,1.90
2023-05-03T03:17:15.511Z,1.52
2023-05-03T03:19:43.626Z,1.40
2023-05-03T03:22:13.744Z,1.90
2023-05-03T03:24:41.936Z,1.52
2023-05-03T03:27:10.514Z,1.90
2023-05-03T03:29:38.967Z,1.88
2023-05-03T03:32:07.735Z,1.80
2023-05-03T03:34:36.133Z,1.90
2023-05-03T03:37:04.656Z,1.75
2023-05-03T03:39:34.130Z,2.33
2023-05-03T03:42:03.426Z,1.70
2023-05-03T03:44:31.565Z,1.70
2023-05-03T03:46:59.766Z,1.58
2023-05-03T03:49:28.157Z,2.10
2023-05-03T03:51:56.610Z,1.70
2023-05-03T03:54:24.982Z,2.15
2023-05-03T03:56:55.002Z,1.90
2023-05-03T03:59:23.186Z,2.17
2023-05-03T04:01:51.338Z,1.90
2023-05-03T04:04:19.549Z,2.17
2023-05-03T04:06:48.123Z,2.20
2023-05-03T04:09:17.645Z,1.60
2023-05-03T04:11:46.443Z,2.00
2023-05-03T04:14:15.938Z,2.33
2023-05-03T04:16:44.118Z,1.65
2023-05-03T04:19:13.063Z,1.52
2023-05-03T04:21:41.291Z,1.90
2023-05-03T04:24:10.352Z,1.77
2023-05-03T04:26:38.440Z,2.08
2023-05-03T04:29:07.415Z,1.67
2023-05-03T04:31:37.297Z,2.20
2023-05-03T04:34:06.048Z,1.67
2023-05-03T04:36:34.857Z,2.13
2023-05-03T04:39:03.251Z,1.98
2023-05-03T04:41:31.422Z,2.53
2023-05-03T04:43:59.899Z,1.80
2023-05-03T04:46:28.385Z,2.08
2023-05-03T04:48:58.312Z,1.67
2023-05-03T04:51:28.335Z,1.73
2023-05-03T04:53:56.460Z,1.98
2023-05-03T04:56:26.640Z,2.28
2023-05-03T04:58:54.862Z,2.10
2023-05-03T05:01:26.717Z,2.00
2023-05-03T05:03:55.289Z,1.65
2023-05-03T05:06:24.872Z,2.10
2023-05-03T05:08:53.451Z,1.80
2023-05-03T05:11:22.416Z,1.98
2023-05-03T05:13:50.731Z,2.03
2023-05-03T05:16:19.733Z,2.00
2023-05-03T05:18:48.603Z,1.80
2023-05-03T05:21:17.133Z,2.25
2023-05-03T05:23:47.234Z,2.00
2023-05-03T05:26:15.543Z,2.20
2023-05-03T05:28:43.626Z,2.20
2023-05-03T05:31:11.785Z,2.35
2023-05-03T05:33:40.627Z,1.98
2023-05-03T05:36:09.154Z,2.70
2023-05-03T05:38:37.725Z,1.58
2023-05-03T05:41:07.545Z,1.92
2023-05-03T05:43:35.646Z,2.33
2023-05-03T05:46:04.308Z,1.85
2023-05-03T05:48:32.686Z,1.60
2023-05-03T05:51:00.790Z,2.05
2023-05-03T05:53:29.374Z,1.52
2023-05-03T05:55:57.836Z,2.10
2023-05-03T05:58:27.407Z,1.60
2023-05-03T06:00:59.932Z,1.70
2023-05-03T06:03:28.367Z,1.50
2023-05-03T06:05:56.995Z,1.60
2023-05-03T06:08:25.187Z,1.95
2023-05-03T06:10:54.277Z,1.50
2023-05-03T06:13:22.855Z,1.45
2023-05-03T06:15:52.438Z,1.67
2023-05-03T06:18:20.649Z,1.48
2023-05-03T06:20:50.932Z,1.70
2023-05-03T06:23:19.472Z,1.08
2023-05-03T06:25:48.427Z,1.23
2023-05-03T06:28:16.584Z,1.20
2023-05-03T06:30:51.864Z,1.40
2023-05-03T06:33:20.346Z,1.70
2023-05-03T06:35:48.460Z,1.48
2023-05-03T06:38:16.950Z,2.00
2023-05-03T06:40:46.355Z,2.85
2023-05-03T06:43:14.565Z,1.98
2023-05-03T06:45:44.362Z,1.55
2023-05-03T06:48:14.007Z,1.10
2023-05-03T06:50:42.219Z,1.30
2023-05-03T06:53:10.353Z,1.23
2023-05-03T06:55:38.493Z,1.00
2023-05-03T06:58:10.057Z,1.50
2023-05-03T07:00:39.198Z,0.90
2023-05-03T07:03:07.833Z,0.90
2023-05-03T07:05:37.963Z,1.00
2023-05-03T07:08:06.880Z,0.90
2023-05-03T07:10:35.067Z,1.20
2023-05-03T07:13:03.215Z,0.93
2023-05-03T07:15:33.209Z,0.80
2023-05-03T07:18:01.762Z,0.98
2023-05-03T07:20:29.989Z,1.13
2023-05-03T07:23:00.944Z,0.90
2023-05-03T07:25:29.080Z,1.05
2023-05-03T07:27:57.214Z,1.00
2023-05-03T07:30:25.861Z,1.23
2023-05-03T07:32:54.645Z,0.90
2023-05-03T07:35:23.662Z,0.90
2023-05-03T07:37:51.744Z,0.77
2023-05-03T07:40:21.513Z,1.30
2023-05-03T07:42:49.936Z,0.90
2023-05-03T07:45:19.179Z,0.70
2023-05-03T07:47:47.609Z,0.90
2023-05-03T07:50:15.942Z,1.02
2023-05-03T07:52:44.076Z,1.10
2023-05-03T07:55:12.256Z,0.90
2023-05-03T07:57:41.847Z,0.95
2023-05-03T08:00:12.792Z,0.77
2023-05-03T08:02:41.547Z,1.05
2023-05-03T08:05:11.524Z,1.00
2023-05-03T08:07:40.036Z,0.75
2023-05-03T08:10:09.479Z,1.00
2023-05-03T08:12:37.682Z,0.60
2023-05-03T08:15:08.966Z,1.10
2023-05-03T08:17:42.240Z,0.85
2023-05-03T08:20:11.879Z,1.00
2023-05-03T08:22:41.401Z,0.93
2023-05-03T08:25:10.362Z,0.98
2023-05-03T08:27:39.325Z,0.80
2023-05-03T08:30:10.530Z,1.10
2023-05-03T08:32:38.727Z,0.93
2023-05-03T08:35:07.711Z,0.70
2023-05-03T08:37:42.402Z,0.88
2023-05-03T08:40:13.814Z,0.77
2023-05-03T08:42:43.181Z,1.77
2023-05-03T08:45:17.735Z,0.85
2023-05-03T08:47:46.727Z,0.70
2023-05-03T08:50:16.443Z,0.90
2023-05-03T08:52:45.725Z,1.00
2023-05-03T08:55:14.847Z,0.93
2023-05-03T08:57:42.945Z,1.00
2023-05-03T09:00:13.184Z,0.85
2023-05-03T09:02:43.514Z,1.02
2023-05-03T09:05:34.823Z,1.10
2023-05-03T09:08:04.048Z,1.23
2023-05-03T09:10:32.287Z,0.80
2023-05-03T09:13:01.803Z,1.25
2023-05-03T09:15:30.777Z,1.20
2023-05-03T09:18:15.814Z,0.80
2023-05-03T09:20:51.465Z,0.85
2023-05-03T09:23:21.316Z,1.00
2023-05-03T09:25:51.727Z,0.90
2023-05-03T09:28:20.927Z,1.08
2023-05-03T09:30:50.375Z,1.10
2023-05-03T09:33:30.784Z,1.08
2023-05-03T09:36:00.514Z,1.30
2023-05-03T09:38:29.511Z,1.20
2023-05-03T09:40:58.155Z,1.10
2023-05-03T09:43:26.769Z,1.10
2023-05-03T09:46:08.669Z,1.10
2023-05-03T09:48:38.579Z,0.93
2023-05-03T09:51:08.019Z,1.10
2023-05-03T09:53:38.544Z,1.02
2023-05-03T09:56:09.482Z,1.02
2023-05-03T09:58:38.147Z,1.25
2023-05-03T10:01:06.517Z,0.93
2023-05-03T10:03:41.413Z,1.13
2023-05-03T10:06:21.083Z,1.15
2023-05-03T10:08:54.071Z,1.55
2023-05-03T10:11:27.864Z,1.55
2023-05-03T10:13:56.880Z,1.17
2023-05-03T10:16:30.029Z,1.02
2023-05-03T10:19:08.750Z,1.20
2023-05-03T10:21:56.212Z,1.20
2023-05-03T10:24:24.425Z,1.38
2023-05-03T10:26:53.233Z,1.00
2023-05-03T10:29:50.236Z,1.10
2023-05-03T10:32:42.912Z,1.52
2023-05-03T10:35:15.473Z,1.40
2023-05-03T10:37:45.519Z,1.48
2023-05-03T10:40:15.404Z,1.25
2023-05-03T10:42:46.624Z,1.35
2023-05-03T10:45:26.628Z,1.20
2023-05-03T10:48:20.941Z,1.10
2023-05-03T10:50:51.684Z,1.00
2023-05-03T10:53:45.145Z,1.00
2023-05-03T10:56:15.732Z,1.17
2023-05-03T10:58:45.878Z,1.13
2023-05-03T11:01:15.484Z,1.20
2023-05-03T11:03:53.343Z,1.13
2023-05-03T11:06:36.654Z,0.90
2023-05-03T11:09:07.134Z,0.98
2023-05-03T11:11:37.847Z,0.98
2023-05-03T11:14:07.182Z,1.30
2023-05-03T11:16:36.650Z,1.00
2023-05-03T11:19:05.015Z,1.10
2023-05-03T11:21:34.605Z,1.10
2023-05-03T11:24:03.702Z,1.17
2023-05-03T11:26:37.068Z,1.27
2023-05-03T11:29:06.442Z,1.00
2023-05-03T11:31:35.730Z,1.05
2023-05-03T11:34:04.550Z,1.10
2023-05-03T11:36:34.593Z,0.98
2023-05-03T11:39:05.722Z,1.20
2023-05-03T11:41:34.457Z,1.13
2023-05-03T11:44:15.458Z,0.80
2023-05-03T11:46:45.740Z,1.00
2023-05-03T11:49:20.022Z,1.17
2023-05-03T11:51:52.693Z,1.05
2023-05-03T11:54:26.747Z,1.25
2023-05-03T11:56:57.891Z,1.20
2023-05-03T11:59:36.200Z,1.00
2023-05-03T12:02:05.633Z,1.15
2023-05-03T12:04:35.136Z,1.33
2023-05-03T12:07:05.634Z,1.50
2023-05-03T12:09:35.298Z,1.40
2023-05-03T12:12:06.234Z,1.30
2023-05-03T12:14:59.017Z,1.35
2023-05-03T12:17:39.199Z,1.00
2023-05-03T12:22:52.552Z,1.17
2023-05-03T12:25:25.931Z,1.10
2023-05-03T12:28:12.806Z,1.15
2023-05-03T12:30:45.753Z,1.10
2023-05-03T12:33:15.985Z,1.00
2023-05-03T12:35:47.805Z,1.00
2023-05-03T12:38:18.490Z,1.17
2023-05-03T12:40:47.006Z,1.05
2023-05-03T12:43:15.410Z,1.10
2023-05-03T12:45:48.198Z,1.58
2023-05-03T12:48:24.019Z,1.20
2023-05-03T12:50:52.460Z,1.00
2023-05-03T12:53:25.813Z,1.23
2023-05-03T12:55:58.368Z,1.60
2023-05-03T13:01:37.948Z,1.17
2023-05-03T13:04:08.439Z,1.23
2023-05-03T13:06:43.141Z,1.13
2023-05-03T13:09:20.563Z,0.82
2023-05-03T13:11:51.404Z,1.30
2023-05-03T13:14:20.970Z,1.10
2023-05-03T13:16:49.690Z,1.38
2023-05-03T13:19:18.095Z,1.30
2023-05-03T13:21:48.756Z,1.15
2023-05-03T13:24:18.561Z,1.60
2023-05-03T13:26:47.140Z,1.05
2023-05-03T13:29:15.302Z,1.20
2023-05-03T13:31:43.485Z,1.10
2023-05-03T13:34:11.644Z,1.30
2023-05-03T13:36:40.059Z,1.20
2023-05-03T13:39:09.866Z,1.38
2023-05-03T13:41:41.075Z,1.10
2023-05-03T13:44:10.202Z,1.25
2023-05-03T13:46:38.802Z,1.10
2023-05-03T13:49:07.369Z,1.83
2023-05-03T13:51:36.620Z,1.10
2023-05-03T13:54:06.923Z,1.13
2023-05-03T13:56:36.081Z,1.00
2023-05-03T13:59:09.098Z,1.00
2023-05-03T14:01:38.271Z,1.25
2023-05-03T14:04:07.133Z,1.00
2023-05-03T14:06:35.976Z,1.25
2023-05-03T14:09:05.196Z,1.20
2023-05-03T14:11:33.710Z,1.15
2023-05-03T14:14:02.579Z,1.10
2023-05-03T14:16:40.856Z,1.10
2023-05-03T14:19:11.631Z,1.02
2023-05-03T14:21:40.510Z,1.15
2023-05-03T14:24:09.419Z,0.90
2023-05-03T14:26:38.270Z,0.90
2023-05-03T14:29:06.684Z,1.20
2023-05-03T14:31:36.793Z,1.10
2023-05-03T14:34:05.318Z,0.93
2023-05-03T14:36:36.557Z,1.10
2023-05-03T14:39:05.297Z,1.20
2023-05-03T14:41:34.449Z,1.05
2023-05-03T14:44:02.724Z,1.05
2023-05-03T14:46:31.248Z,1.00
2023-05-03T14:49:01.914Z,0.95
2023-05-03T14:51:30.392Z,1.30
2023-05-03T14:53:58.594Z,1.00
2023-05-03T14:56:27.387Z,1.30
2023-05-03T14:58:55.683Z,1.10
2023-05-03T15:01:24.058Z,0.95
2023-05-03T15:03:53.615Z,1.10
2023-05-03T15:06:28.949Z,1.00
2023-05-03T15:08:58.261Z,1.17
2023-05-03T15:11:27.793Z,1.02
2023-05-03T15:13:56.093Z,1.20
2023-05-03T15:16:24.636Z,1.50
2023-05-03T15:18:52.764Z,1.23
2023-05-03T15:21:21.568Z,1.08
2023-05-03T15:23:51.903Z,0.80
2023-05-03T15:26:20.112Z,0.93
2023-05-03T15:28:48.243Z,1.40
2023-05-03T15:31:17.701Z,1.35
2023-05-03T15:33:46.172Z,1.10
2023-05-03T15:36:17.097Z,0.80
2023-05-03T15:38:45.578Z,1.20
2023-05-03T15:41:15.250Z,1.25
2023-05-03T15:43:44.194Z,0.95
2023-05-03T15:46:12.373Z,0.95
2023-05-03T15:48:41.456Z,1.00
2023-05-03T15:51:09.582Z,1.13
2023-05-03T15:53:38.044Z,1.40
2023-05-03T15:56:07.380Z,1.30
2023-05-03T15:58:37.312Z,1.50
2023-05-03T16:01:05.823Z,1.00
2023-05-03T16:03:33.952Z,0.80
2023-05-03T16:06:02.095Z,1.08
2023-05-03T16:08:30.567Z,1.02
2023-05-03T16:10:59.429Z,0.90
2023-05-03T16:13:27.566Z,1.13
2023-05-03T16:15:57.411Z,0.88
2023-05-03T16:18:27.201Z,1.05
2023-05-03T16:20:55.641Z,1.00
2023-05-03T16:23:24.118Z,0.95
2023-05-03T16:25:52.302Z,1.00
2023-05-03T16:28:20.679Z,1.15
2023-05-03T16:30:48.763Z,1.10
2023-05-03T16:33:18.525Z,1.20
2023-05-03T16:35:46.719Z,0.98
2023-05-03T16:38:14.809Z,1.00
2023-05-03T16:40:43.557Z,1.10
2023-05-03T16:43:11.635Z,1.30
2023-05-03T16:45:40.164Z,1.40
2023-05-03T16:48:11.178Z,0.85
2023-05-03T16:50:43.927Z,1.30
2023-05-03T16:53:13.316Z,0.90
2023-05-03T16:55:41.437Z,1.90
2023-05-03T16:58:09.583Z,1.15
2023-05-03T17:00:37.709Z,2.13
2023-05-03T17:03:06.524Z,1.88
2023-05-03T17:05:35.166Z,1.25
2023-05-03T17:08:08.211Z,1.60
2023-05-03T17:10:38.518Z,1.35
2023-05-03T17:13:09.574Z,0.90
2023-05-03T17:15:38.787Z,1.00
2023-05-03T17:18:07.045Z,1.33
2023-05-03T17:20:35.875Z,0.98
2023-05-03T17:23:05.597Z,0.98
2023-05-03T17:25:33.902Z,1.30
2023-05-03T17:28:02.176Z,1.00
2023-05-03T17:30:30.253Z,1.30
2023-05-03T17:32:59.011Z,0.70
2023-05-03T17:35:27.196Z,1.15
2023-05-03T17:37:55.343Z,1.00
2023-05-03T17:40:25.185Z,0.95
2023-05-03T17:42:53.340Z,1.00
2023-05-03T17:45:22.461Z,0.80
2023-05-03T17:47:50.870Z,0.85
2023-05-03T17:50:19.645Z,1.10
2023-05-03T17:52:47.776Z,0.90
2023-05-03T17:55:18.105Z,1.00
2023-05-03T17:57:48.076Z,1.02
2023-05-03T18:00:17.498Z,1.00
2023-05-03T18:02:46.055Z,1.10
2023-05-03T18:05:16.166Z,0.90
2023-05-03T18:07:44.745Z,1.08
2023-05-03T18:10:16.311Z,1.10
2023-05-03T18:12:45.114Z,0.90
2023-05-03T18:15:15.705Z,1.00
2023-05-03T18:17:44.302Z,1.00
2023-05-03T18:20:13.847Z,1.00
2023-05-03T18:22:42.294Z,0.90
2023-05-03T18:25:11.069Z,1.05
2023-05-03T18:27:39.439Z,1.05
2023-05-03T18:30:09.214Z,0.90
2023-05-03T18:32:39.084Z,0.95
2023-05-03T18:35:07.950Z,0.80
2023-05-03T18:37:36.301Z,0.90
2023-05-03T18:40:05.374Z,0.80
2023-05-03T18:42:33.764Z,0.80
2023-05-03T18:45:01.897Z,0.95
2023-05-03T18:47:30.060Z,0.90
2023-05-03T18:49:59.539Z,0.90
2023-05-03T18:52:27.742Z,0.90
2023-05-03T18:54:55.834Z,1.10
2023-05-03T18:57:24.255Z,0.90
2023-05-03T19:00:07.793Z,0.80
2023-05-03T19:02:36.649Z,1.05
2023-05-03T19:05:06.853Z,1.10
2023-05-03T19:07:35.490Z,0.90
2023-05-03T19:10:03.960Z,1.05
2023-05-03T19:12:32.582Z,1.10
2023-05-03T19:15:01.333Z,1.02
2023-05-03T19:17:29.617Z,1.17
2023-05-03T19:19:58.683Z,0.90
2023-05-03T19:22:28.197Z,1.15
2023-05-03T19:24:58.029Z,1.10
2023-05-03T19:27:26.094Z,1.08
2023-05-03T19:29:56.762Z,1.05
2023-05-03T19:32:25.232Z,1.10
2023-05-03T19:34:53.764Z,0.90
2023-05-03T19:37:22.283Z,1.05
2023-05-03T19:39:51.769Z,1.05
2023-05-03T19:42:19.863Z,1.00
2023-05-03T19:44:48.632Z,0.93
2023-05-03T19:47:16.965Z,0.95
2023-05-03T19:49:45.340Z,0.88
2023-05-03T19:52:13.440Z,1.33
2023-05-03T19:54:41.602Z,1.08
2023-05-03T19:57:11.932Z,1.13
2023-05-03T19:59:40.029Z,1.00
2023-05-03T20:02:08.704Z,1.25
2023-05-03T20:04:36.828Z,1.13
2023-05-03T20:07:05.325Z,1.00
2023-05-03T20:09:33.822Z,1.20
2023-05-03T20:12:02.300Z,1.48
2023-05-03T20:14:32.722Z,1.30
2023-05-03T20:17:01.581Z,1.17
2023-05-03T20:19:29.758Z,1.77
2023-05-03T20:21:58.650Z,1.17
2023-05-03T20:24:26.765Z,1.60
2023-05-03T20:26:55.060Z,1.08
2023-05-03T20:29:23.358Z,1.40
2023-05-03T20:31:54.214Z,1.20
2023-05-03T20:34:22.476Z,1.20
2023-05-03T20:36:52.592Z,1.27
2023-05-03T20:39:20.733Z,1.15
2023-05-03T20:41:49.194Z,1.25
2023-05-03T20:44:17.287Z,1.75
2023-05-03T20:46:46.060Z,1.10
2023-05-03T20:49:15.513Z,1.23
2023-05-03T20:51:43.633Z,1.30
2023-05-03T20:54:11.844Z,1.30
2023-05-03T20:56:39.966Z,1.15
2023-05-03T20:59:08.289Z,1.52
2023-05-03T21:01:40.071Z,1.40
2023-05-03T21:04:08.698Z,1.30
2023-05-03T21:06:38.979Z,1.00
2023-05-03T21:09:07.163Z,1.42
2023-05-03T21:11:35.598Z,1.10
2023-05-03T21:14:03.719Z,1.38
2023-05-03T21:16:31.999Z,1.20
2023-05-03T21:19:00.098Z,1.00
2023-05-03T21:21:28.684Z,1.45
2023-05-03T21:23:58.191Z,1.10
2023-05-03T21:26:26.612Z,1.20
2023-05-03T21:28:54.689Z,0.93
2023-05-03T21:31:22.947Z,1.20
2023-05-03T21:33:51.376Z,1.10
2023-05-03T21:36:19.509Z,0.90
2023-05-03T21:38:48.242Z,1.10
2023-05-03T21:41:18.283Z,1.02
2023-05-03T21:43:46.828Z,1.00
2023-05-03T21:46:15.075Z,1.30
2023-05-03T21:48:43.372Z,1.33
2023-05-03T21:51:19.187Z,1.05
2023-05-03T21:53:47.788Z,1.13
2023-05-03T21:56:17.426Z,1.05
2023-05-03T21:58:46.641Z,0.93
2023-05-03T22:01:17.224Z,0.90
2023-05-03T22:03:45.948Z,1.30
2023-05-03T22:06:14.281Z,1.00
2023-05-03T22:08:42.607Z,1.40
2023-05-03T22:11:11.548Z,1.35
2023-05-03T22:13:54.491Z,1.30
2023-05-03T22:16:29.775Z,0.90
2023-05-03T22:18:58.757Z,1.00
2023-05-03T22:21:27.526Z,1.05
2023-05-03T22:23:55.904Z,1.20
2023-05-03T22:26:24.348Z,1.10
2023-05-03T22:28:54.128Z,1.17
2023-05-03T22:31:22.652Z,1.20
2023-05-03T22:33:51.454Z,1.30
2023-05-03T22:36:19.678Z,1.55
2023-05-03T22:38:47.955Z,1.55
2023-05-03T22:41:16.447Z,1.38
2023-05-03T22:43:44.951Z,1.33
2023-05-03T22:46:14.587Z,1.40
2023-05-03T22:48:42.834Z,1.20
2023-05-03T22:51:11.175Z,1.20
2023-05-03T22:53:39.619Z,1.45
2023-05-03T22:56:08.187Z,1.10
2023-05-03T22:58:36.698Z,1.27
2023-05-03T23:01:05.537Z,1.17
2023-05-03T23:03:35.206Z,1.27
2023-05-03T23:06:03.679Z,1.23
2023-05-03T23:08:32.142Z,2.95
2023-05-03T23:11:00.308Z,1.60
2023-05-03T23:13:28.786Z,1.27
2023-05-03T23:15:57.325Z,1.50
2023-05-03T23:18:26.049Z,1.30
2023-05-03T23:20:55.799Z,1.30
2023-05-03T23:23:24.249Z,1.30
2023-05-03T23:25:52.839Z,1.30
2023-05-03T23:28:21.884Z,1.23
2023-05-03T23:30:50.552Z,1.58
2023-05-03T23:33:19.127Z,1.50
2023-05-03T23:35:48.759Z,1.48
2023-05-03T23:38:18.406Z,1.27
2023-05-03T23:40:46.535Z,1.38
2023-05-03T23:43:14.854Z,1.10
2023-05-03T23:45:43.058Z,0.90
2023-05-03T23:48:11.182Z,1.50
2023-05-03T23:50:39.540Z,1.27
2023-05-03T23:53:07.985Z,1.25
2023-05-03T23:55:37.524Z,1.17
2023-05-03T23:58:06.082Z,1.50
